Odyssea Darwin — WDE2876 — position and weather

sailwx.info

Track history (hours):
 
Tides and Currents Weather Stations Pressure Air Temp Water Temp Dewpoint Dewpoint Depression Visibility Wind Speed Wind Dir Waves Ship Positions

Odyssea Darwin

Owner: ODYSSEA MARINE, INC., LAROSE, LA. More information available from US FCC via Universal Licensing System and Coast Guard Vessel Documentation Center.

Last reported at 2017-Nov-17 10:30 UTC. Time now 2017-Nov-18 10:35 UTC.
Position N 29°09' W 090°12'.

Length 48 m; draft 3 m.

Type: Cargo ship. MMSI: 367330830.

Date/timePositionNaut miles runAvg speedWind from/ knotsBaromVisibWave heightAir tempDewpointWater temp
2017-Nov-17 10:30N 29°09' W 090°12'0 0.0
2017-Nov-17 09:47N 29°09' W 090°12'0 0.0
2017-Nov-17 09:30N 29°09' W 090°12'0 0.0
2017-Nov-17 09:00N 29°09' W 090°12'0 0.0
2017-Nov-17 08:30N 29°09' W 090°12'0 0.0
2017-Nov-17 08:00N 29°09' W 090°12'0 0.0
2017-Nov-17 07:26N 29°09' W 090°12'0 0.0
2017-Nov-17 05:41N 29°09' W 090°12'  
2017-Nov-08 06:55N 29°20' W 090°44'2 5.3
2017-Nov-08 06:29N 29°22' W 090°44'3 6.9
2017-Nov-08 06:00N 29°26' W 090°43'4 7.6
2017-Nov-08 05:31N 29°29' W 090°43'4 7.3
2017-Nov-08 05:00N 29°33' W 090°42'2 4.9
2017-Nov-08 04:30N 29°35' W 090°43'2 3.5
2017-Nov-08 04:01N 29°36' W 090°41'3 5.4
2017-Nov-08 03:30N 29°35' W 090°38'3 5.7
2017-Nov-08 03:00N 29°35' W 090°35'4 7.0
2017-Nov-08 02:30N 29°34' W 090°31'4 7.2
2017-Nov-08 02:00N 29°33' W 090°27'3 6.0
2017-Nov-08 01:30N 29°33' W 090°23'  
Track history (hours):
 
Tides and Currents Weather Stations Pressure Air Temp Water Temp Dewpoint Dewpoint Depression Visibility Wind Speed Wind Dir Waves Ship Positions

Odyssea Darwin

Owner: ODYSSEA MARINE, INC., LAROSE, LA. More information available from US FCC via Universal Licensing System and Coast Guard Vessel Documentation Center.

Last reported at 2017-Nov-17 10:30 UTC. Time now 2017-Nov-18 10:35 UTC.
Position N 29°09' W 090°12'.

Length 48 m; draft 3 m.

Type: Cargo ship. MMSI: 367330830.

Date/timePositionNaut miles runAvg speedWind from/ knotsBaromVisibWave heightAir tempDewpointWater temp
2017-Nov-17 10:30N 29°09' W 090°12'0 0.0
2017-Nov-17 09:47N 29°09' W 090°12'0 0.0
2017-Nov-17 09:30N 29°09' W 090°12'0 0.0
2017-Nov-17 09:00N 29°09' W 090°12'0 0.0
2017-Nov-17 08:30N 29°09' W 090°12'0 0.0
2017-Nov-17 08:00N 29°09' W 090°12'0 0.0
2017-Nov-17 07:26N 29°09' W 090°12'0 0.0
2017-Nov-17 05:41N 29°09' W 090°12'  
2017-Nov-08 06:55N 29°20' W 090°44'2 5.3
2017-Nov-08 06:29N 29°22' W 090°44'3 6.9
2017-Nov-08 06:00N 29°26' W 090°43'4 7.6
2017-Nov-08 05:31N 29°29' W 090°43'4 7.3
2017-Nov-08 05:00N 29°33' W 090°42'2 4.9
2017-Nov-08 04:30N 29°35' W 090°43'2 3.5
2017-Nov-08 04:01N 29°36' W 090°41'3 5.4
2017-Nov-08 03:30N 29°35' W 090°38'3 5.7
2017-Nov-08 03:00N 29°35' W 090°35'4 7.0
2017-Nov-08 02:30N 29°34' W 090°31'4 7.2
2017-Nov-08 02:00N 29°33' W 090°27'3 6.0
2017-Nov-08 01:30N 29°33' W 090°23'  

Dump ship's entire track history